Time;durP1;ratioP1;P1;durP2;ratioP2;P2;SDS_P1;SDS_P2;PMS_P1;PMS_P2;Temp;Humidity;BMP_temperature;BMP_pressure;BME280_temperature;BME280_humidity;BME280_pressure;Samples;Min_cycle;Max_cycle;Signal;HPM_P1;HPM_P2
2022/09/01 00:02:07;;;;;;;3.90;3.30;;;18.60;97.80;;;;;;5020435;28;20476;-71
2022/09/01 00:04:57;;;;;;;13.50;4.00;;;18.60;97.80;;;;;;5026470;28;20456;-71
2022/09/01 00:07:42;;;;;;;3.80;3.20;;;18.70;97.50;;;;;;5024150;28;20620;-71
2022/09/01 00:10:28;;;;;;;4.70;3.63;;;18.70;98.00;;;;;;5024143;28;20456;-71
2022/09/01 00:13:14;;;;;;;4.63;3.10;;;18.70;97.60;;;;;;5021079;28;21028;-72
2022/09/01 00:16:02;;;;;;;5.00;3.60;;;18.70;97.60;;;;;;5026904;28;20805;-71
2022/09/01 00:18:51;;;;;;;5.57;3.30;;;18.70;97.60;;;;;;5024193;28;20483;-71
2022/09/01 00:21:42;;;;;;;6.03;3.87;;;18.70;98.20;;;;;;5021557;28;20444;-71
2022/09/01 00:24:28;;;;;;;4.50;3.30;;;18.70;98.20;;;;;;5025543;28;20608;-71
2022/09/01 00:27:14;;;;;;;5.10;3.00;;;18.50;98.40;;;;;;5025675;28;20447;-71
2022/09/01 00:29:59;;;;;;;7.00;3.50;;;18.50;98.40;;;;;;5024479;28;20453;-71
2022/09/01 00:32:45;;;;;;;6.50;4.07;;;18.50;99.60;;;;;;5029765;28;20961;-70
2022/09/01 00:35:31;;;;;;;4.73;3.77;;;18.40;99.90;;;;;;5030112;28;20451;-70
2022/09/01 00:38:18;;;;;;;6.77;3.03;;;18.30;99.90;;;;;;5029895;28;20448;-72
2022/09/01 00:41:04;;;;;;;5.70;3.60;;;18.40;99.90;;;;;;5026200;28;20636;-71
2022/09/01 00:43:52;;;;;;;4.00;3.50;;;18.30;99.90;;;;;;5025873;28;20475;-70
2022/09/01 00:46:40;;;;;;;6.20;3.40;;;18.30;99.90;;;;;;5029459;28;20591;-71
2022/09/01 00:49:31;;;;;;;6.50;3.53;;;18.20;99.90;;;;;;5029285;28;20455;-71
2022/09/01 00:52:22;;;;;;;5.63;3.50;;;18.20;99.90;;;;;;5025483;28;20452;-71
2022/09/01 00:55:13;;;;;;;6.97;4.10;;;18.20;99.90;;;;;;5026860;28;20453;-72
2022/09/01 00:58:01;;;;;;;4.43;3.87;;;18.20;99.90;;;;;;5027972;28;20475;-71
2022/09/01 01:00:48;;;;;;;5.80;3.70;;;18.20;99.90;;;;;;5021075;28;20440;-71
2022/09/01 01:03:34;;;;;;;9.10;3.90;;;18.20;99.90;;;;;;5029495;28;20464;-71
2022/09/01 01:06:25;;;;;;;5.77;4.07;;;18.30;99.90;;;;;;5027899;28;20558;-71
2022/09/01 01:09:12;;;;;;;8.20;4.07;;;18.30;99.90;;;;;;5020545;28;20510;-71
2022/09/01 01:12:00;;;;;;;6.03;3.83;;;18.40;99.90;;;;;;5026382;28;20980;-71
2022/09/01 01:14:48;;;;;;;6.40;3.80;;;18.40;99.90;;;;;;5025531;28;20468;-71
2022/09/01 01:17:35;;;;;;;5.23;4.00;;;18.50;99.90;;;;;;5028054;28;20471;-72
2022/09/01 01:23:37;;;;;;;4.47;3.47;;;18.60;99.90;;;;;;5022702;28;21117;-71
2022/09/01 01:26:24;;;;;;;5.73;4.20;;;18.60;99.90;;;;;;5027068;28;20452;-71
2022/09/01 01:29:10;;;;;;;5.47;4.10;;;18.60;99.90;;;;;;5020905;28;20473;-72
2022/09/01 01:31:56;;;;;;;4.83;3.50;;;18.60;99.90;;;;;;5026239;28;20457;-71
2022/09/01 01:34:44;;;;;;;4.67;3.80;;;18.60;99.90;;;;;;5032410;28;20909;-71
2022/09/01 01:37:29;;;;;;;4.13;3.00;;;18.70;99.90;;;;;;5026007;28;20911;-71
2022/09/01 01:40:19;;;;;;;4.53;3.60;;;18.70;99.90;;;;;;5024816;28;20611;-71
2022/09/01 01:43:06;;;;;;;4.47;3.60;;;18.70;99.90;;;;;;5026824;28;20472;-71
2022/09/01 01:45:57;;;;;;;4.80;3.77;;;18.60;99.90;;;;;;5023523;28;20933;-71
2022/09/01 01:48:43;;;;;;;5.73;4.00;;;18.60;99.90;;;;;;5024471;28;20476;-72
2022/09/01 01:51:31;;;;;;;4.47;3.80;;;18.60;99.90;;;;;;5030550;28;20939;-70
2022/09/01 01:54:18;;;;;;;5.17;3.63;;;18.60;99.90;;;;;;5030614;28;20436;-71
2022/09/01 01:57:04;;;;;;;4.70;3.63;;;18.60;99.90;;;;;;5032599;28;20468;-71
2022/09/01 01:59:53;;;;;;;8.20;3.53;;;18.70;99.90;;;;;;5027944;28;20494;-71
2022/09/01 02:02:38;;;;;;;6.47;3.87;;;18.60;99.90;;;;;;5021302;28;20451;-71
2022/09/01 02:05:27;;;;;;;5.90;4.50;;;18.50;99.90;;;;;;5026098;28;20500;-70
2022/09/01 02:08:17;;;;;;;5.67;4.27;;;18.50;99.90;;;;;;5016221;28;20464;-72
2022/09/01 02:11:04;;;;;;;4.37;3.83;;;18.60;99.90;;;;;;5023092;28;20447;-71
2022/09/01 02:13:50;;;;;;;5.50;4.20;;;18.50;99.90;;;;;;5023643;28;20451;-71
2022/09/01 02:16:37;;;;;;;4.40;3.93;;;18.50;99.90;;;;;;5026417;28;20438;-72
2022/09/01 02:19:22;;;;;;;6.47;4.20;;;18.40;99.90;;;;;;5017951;28;20984;-70
2022/09/01 02:22:09;;;;;;;4.83;3.80;;;18.50;99.90;;;;;;5026900;28;20452;-71
2022/09/01 02:24:56;;;;;;;8.17;3.80;;;18.50;99.90;;;;;;5026347;28;20449;-71
2022/09/01 02:27:42;;;;;;;6.30;4.27;;;18.40;99.90;;;;;;5022482;28;20579;-72
2022/09/01 02:30:31;;;;;;;5.30;3.40;;;18.20;99.90;;;;;;5021704;28;20440;-71
2022/09/01 02:33:18;;;;;;;4.80;3.30;;;18.10;99.90;;;;;;5028133;28;20440;-71
2022/09/01 02:36:12;;;;;;;4.80;3.93;;;18.10;99.90;;;;;;5025457;28;20831;-70
2022/09/01 02:38:58;;;;;;;4.63;4.00;;;18.00;99.90;;;;;;5026406;28;20836;-71
2022/09/01 02:41:44;;;;;;;5.93;4.00;;;17.90;99.90;;;;;;5023986;28;20431;-72
2022/09/01 02:44:31;;;;;;;6.20;3.93;;;17.80;99.90;;;;;;5025404;28;20454;-71
2022/09/01 02:47:16;;;;;;;6.77;4.20;;;17.70;99.90;;;;;;5022915;28;20440;-72
2022/09/01 02:50:05;;;;;;;5.60;4.20;;;17.60;99.90;;;;;;5020617;28;22272;-71
2022/09/01 02:52:52;;;;;;;4.27;3.27;;;17.60;99.90;;;;;;5023276;28;20452;-72
2022/09/01 02:55:40;;;;;;;4.40;3.67;;;17.40;99.90;;;;;;5027029;28;20430;-71
2022/09/01 02:58:26;;;;;;;5.57;3.30;;;17.30;99.90;;;;;;5020427;28;20844;-71
2022/09/01 03:01:15;;;;;;;5.00;3.47;;;17.10;99.90;;;;;;5027826;28;20438;-73
2022/09/01 03:04:04;;;;;;;15.50;5.33;;;17.00;99.90;;;;;;5026601;28;20607;-71
2022/09/01 03:06:53;;;;;;;4.60;3.93;;;16.90;99.90;;;;;;5023913;28;20453;-71
2022/09/01 03:09:40;;;;;;;6.30;3.50;;;17.00;99.90;;;;;;5027603;28;20464;-70
2022/09/01 03:12:26;;;;;;;5.00;3.70;;;16.90;99.90;;;;;;5024617;28;20982;-71
2022/09/01 03:15:13;;;;;;;8.50;4.10;;;17.00;99.90;;;;;;5026543;28;20501;-71
2022/09/01 03:17:59;;;;;;;12.43;4.30;;;17.00;99.90;;;;;;5022712;28;20472;-71
2022/09/01 03:20:46;;;;;;;4.53;3.77;;;16.80;99.90;;;;;;5024384;28;20445;-70
2022/09/01 03:23:33;;;;;;;6.00;4.13;;;16.80;99.90;;;;;;5022105;28;20465;-71
2022/09/01 03:26:21;;;;;;;6.50;4.00;;;16.60;99.90;;;;;;5018444;28;20494;-70
2022/09/01 03:29:07;;;;;;;5.90;4.70;;;16.70;99.90;;;;;;5024014;28;20476;-71
2022/09/01 03:31:53;;;;;;;6.07;3.80;;;16.80;99.90;;;;;;5027266;28;20837;-71
2022/09/01 03:34:38;;;;;;;6.20;4.60;;;16.80;99.90;;;;;;5023485;28;20519;-71
2022/09/01 03:37:24;;;;;;;4.00;3.27;;;16.70;99.90;;;;;;5024581;28;20423;-71
2022/09/01 03:40:12;;;;;;;5.13;3.80;;;16.70;99.90;;;;;;5027176;28;20510;-71
2022/09/01 03:42:58;;;;;;;9.40;4.20;;;16.70;99.90;;;;;;5028888;28;20464;-71
2022/09/01 03:45:44;;;;;;;4.60;4.20;;;16.60;99.90;;;;;;5027216;28;20440;-72
2022/09/01 03:48:31;;;;;;;7.70;4.70;;;16.50;99.90;;;;;;5027973;28;20542;-72
2022/09/01 03:51:19;;;;;;;5.67;3.97;;;16.50;99.90;;;;;;5031329;28;20902;-71
2022/09/01 03:54:05;;;;;;;6.73;4.03;;;16.40;99.90;;;;;;5021960;28;20546;-71
2022/09/01 03:56:53;;;;;;;6.80;4.93;;;16.40;99.90;;;;;;5022470;28;20464;-72
2022/09/01 03:59:42;;;;;;;11.03;4.63;;;16.30;99.90;;;;;;5023587;28;20495;-71
2022/09/01 04:02:29;;;;;;;4.70;4.00;;;16.40;99.90;;;;;;5027367;28;20892;-71
2022/09/01 04:05:15;;;;;;;5.87;4.50;;;16.50;99.90;;;;;;5020840;28;20454;-71
2022/09/01 04:08:04;;;;;;;5.17;4.40;;;16.60;99.90;;;;;;5018720;28;20467;-71
2022/09/01 04:10:52;;;;;;;5.47;4.30;;;16.60;99.90;;;;;;5025056;28;20499;-71
2022/09/01 04:13:40;;;;;;;6.30;4.50;;;16.50;99.90;;;;;;5031709;28;20579;-72
2022/09/01 04:19:38;;;;;;;4.90;4.17;;;16.40;99.90;;;;;;5023371;28;20455;-71
2022/09/01 04:22:28;;;;;;;5.40;4.90;;;16.30;99.90;;;;;;5022989;28;20456;-72
2022/09/01 04:25:14;;;;;;;5.90;5.00;;;16.20;99.90;;;;;;5021834;28;20514;-73
2022/09/01 04:28:11;;;;;;;5.80;4.20;;;16.10;99.90;;;;;;5028897;28;20463;-71
2022/09/01 04:30:58;;;;;;;5.20;4.40;;;16.00;99.90;;;;;;5019230;28;20831;-71
2022/09/01 04:33:45;;;;;;;6.20;4.30;;;15.90;99.90;;;;;;5023145;28;21071;-71
2022/09/01 04:36:32;;;;;;;7.37;4.37;;;15.90;99.90;;;;;;5019150;28;20440;-71
2022/09/01 04:39:18;;;;;;;5.40;4.30;;;15.90;99.90;;;;;;5025393;28;20469;-72
2022/09/01 04:42:07;;;;;;;4.60;3.97;;;16.00;99.90;;;;;;5022228;28;20572;-71
2022/09/01 04:44:56;;;;;;;5.20;3.87;;;15.90;99.90;;;;;;5016434;28;20472;-70
2022/09/01 04:47:44;;;;;;;6.80;4.67;;;15.90;99.90;;;;;;5021898;28;20482;-71
2022/09/01 04:50:31;;;;;;;6.27;5.10;;;16.00;99.90;;;;;;5020702;28;20503;-70
2022/09/01 04:53:17;;;;;;;7.33;5.10;;;15.90;99.90;;;;;;5026695;28;20428;-71
2022/09/01 04:56:04;;;;;;;5.87;4.50;;;16.00;99.90;;;;;;5020270;28;20538;-71
2022/09/01 04:58:50;;;;;;;6.17;4.53;;;15.90;99.90;;;;;;5027590;28;20456;-70
2022/09/01 05:01:42;;;;;;;5.20;4.50;;;15.90;99.90;;;;;;5022040;28;20440;-71
2022/09/01 05:04:32;;;;;;;6.70;4.70;;;15.80;99.90;;;;;;5021585;28;20450;-71
2022/09/01 05:07:17;;;;;;;5.33;4.60;;;15.80;99.90;;;;;;5023570;28;20457;-71
2022/09/01 05:10:04;;;;;;;6.90;4.47;;;15.80;99.90;;;;;;5026532;28;20840;-71
2022/09/01 05:12:52;;;;;;;5.60;4.60;;;16.00;99.90;;;;;;5021228;28;20447;-71
2022/09/01 05:15:38;;;;;;;6.10;4.80;;;16.00;99.90;;;;;;5022056;28;20755;-71
2022/09/01 05:18:24;;;;;;;4.40;4.00;;;16.20;99.90;;;;;;5030018;28;20458;-71
2022/09/01 05:21:11;;;;;;;4.73;4.30;;;16.20;99.90;;;;;;5025767;28;20985;-71
2022/09/01 05:23:59;;;;;;;5.30;4.53;;;16.30;99.90;;;;;;5020150;28;20480;-71
2022/09/01 05:26:49;;;;;;;6.20;5.60;;;16.30;99.90;;;;;;5024130;28;20497;-70
2022/09/01 05:29:36;;;;;;;6.90;4.70;;;16.40;99.90;;;;;;5024864;28;20463;-71
2022/09/01 05:32:24;;;;;;;5.80;5.20;;;16.40;99.90;;;;;;5023167;28;20423;-71
2022/09/01 05:35:10;;;;;;;5.50;4.83;;;16.50;99.90;;;;;;5023689;28;20535;-70
2022/09/01 05:37:58;;;;;;;9.67;5.47;;;16.60;99.90;;;;;;5027999;28;20448;-71
2022/09/01 05:40:44;;;;;;;8.17;5.03;;;16.60;99.90;;;;;;5023267;28;20513;-71
2022/09/01 05:43:32;;;;;;;8.90;4.33;;;16.60;99.90;;;;;;5022293;28;20622;-71
2022/09/01 05:46:20;;;;;;;6.60;4.73;;;16.70;99.90;;;;;;5020229;28;20500;-70
2022/09/01 05:49:08;;;;;;;6.40;5.23;;;16.70;99.90;;;;;;5059685;22;20493;-71
2022/09/01 05:51:57;;;;;;;6.60;4.20;;;16.60;99.90;;;;;;5071997;28;20444;-71
2022/09/01 05:54:46;;;;;;;9.10;4.70;;;16.70;99.90;;;;;;5065764;28;20426;-71
2022/09/01 05:57:33;;;;;;;5.50;4.77;;;16.70;99.90;;;;;;5070257;28;20455;-71
2022/09/01 06:00:20;;;;;;;6.30;4.60;;;16.80;99.90;;;;;;5068606;28;20596;-71
2022/09/01 06:03:05;;;;;;;12.10;4.57;;;16.90;99.90;;;;;;5066045;28;20409;-71
2022/09/01 06:05:52;;;;;;;8.00;4.83;;;16.80;99.90;;;;;;5055451;28;20444;-72
2022/09/01 06:08:41;;;;;;;7.17;5.10;;;16.90;99.90;;;;;;5063889;28;20459;-70
2022/09/01 06:11:31;;;;;;;5.97;4.30;;;17.00;99.90;;;;;;5064667;28;20969;-71
2022/09/01 06:14:19;;;;;;;5.77;5.07;;;17.20;99.90;;;;;;5059806;28;20425;-71
2022/09/01 06:17:08;;;;;;;7.17;4.83;;;17.40;99.90;;;;;;5068003;28;20439;-71
2022/09/01 06:19:55;;;;;;;4.47;3.97;;;17.60;99.90;;;;;;5070640;28;21006;-72
2022/09/01 06:22:42;;;;;;;9.00;4.40;;;17.70;99.90;;;;;;5060897;28;20470;-71
2022/09/01 06:25:29;;;;;;;9.13;4.80;;;17.90;99.90;;;;;;5064548;28;20617;-72
2022/09/01 06:28:20;;;;;;;5.33;4.70;;;18.00;99.90;;;;;;5065811;28;20763;-71
2022/09/01 06:31:08;;;;;;;5.53;4.20;;;18.10;99.90;;;;;;5074033;28;20803;-71
2022/09/01 06:33:56;;;;;;;11.30;5.20;;;18.20;99.90;;;;;;5062509;28;20921;-71
2022/09/01 06:36:42;;;;;;;10.13;5.60;;;18.30;99.90;;;;;;5062899;28;20560;-71
2022/09/01 06:39:27;;;;;;;5.57;4.33;;;18.40;99.90;;;;;;5066668;28;20495;-71
2022/09/01 06:42:14;;;;;;;5.53;4.00;;;18.60;99.90;;;;;;5063332;28;20450;-71
2022/09/01 06:45:01;;;;;;;6.30;4.23;;;18.70;99.90;;;;;;5063839;28;21030;-71
2022/09/01 06:47:49;;;;;;;4.73;4.00;;;18.80;99.90;;;;;;5068283;28;20431;-71
2022/09/01 06:50:36;;;;;;;5.03;3.77;;;19.00;99.90;;;;;;5067200;28;20928;-71
2022/09/01 06:53:22;;;;;;;4.37;3.80;;;19.20;99.90;;;;;;5061234;28;20439;-71
2022/09/01 06:56:09;;;;;;;11.50;5.50;;;19.30;99.90;;;;;;5062141;28;20406;-72
2022/09/01 06:58:55;;;;;;;5.37;4.20;;;19.50;99.90;;;;;;5069434;28;20489;-71
2022/09/01 07:01:42;;;;;;;6.40;4.37;;;19.70;99.90;;;;;;5060895;28;20489;-71
2022/09/01 07:04:29;;;;;;;5.83;4.37;;;19.80;99.90;;;;;;5059339;28;20823;-72
2022/09/01 07:07:14;;;;;;;4.53;3.57;;;19.90;99.90;;;;;;5060902;28;20443;-71
2022/09/01 07:10:00;;;;;;;5.43;4.13;;;20.00;99.90;;;;;;5064873;28;20439;-72
2022/09/01 07:12:46;;;;;;;7.57;3.70;;;20.10;99.90;;;;;;5063556;28;20442;-71
2022/09/01 07:15:32;;;;;;;4.80;3.90;;;20.20;99.90;;;;;;5070595;28;20566;-71
2022/09/01 07:18:21;;;;;;;7.13;3.90;;;20.30;99.90;;;;;;5066038;28;20809;-71
2022/09/01 07:21:07;;;;;;;5.80;4.00;;;20.30;99.90;;;;;;5069930;28;20423;-72
2022/09/01 07:23:54;;;;;;;5.10;3.93;;;20.30;99.90;;;;;;5070046;28;20461;-71
2022/09/01 07:26:41;;;;;;;6.47;3.60;;;20.40;99.90;;;;;;5063667;28;20442;-71
2022/09/01 07:29:27;;;;;;;4.90;4.10;;;20.40;99.90;;;;;;5064617;28;20538;-71
2022/09/01 07:32:15;;;;;;;5.40;4.17;;;20.50;99.10;;;;;;5070394;28;20419;-71
2022/09/01 07:35:02;;;;;;;5.00;3.83;;;20.50;95.90;;;;;;5070436;28;20843;-71
2022/09/01 07:37:49;;;;;;;5.53;4.00;;;20.60;96.40;;;;;;5063400;28;20450;-71
2022/09/01 07:40:36;;;;;;;8.00;3.60;;;20.70;96.50;;;;;;5069086;28;20430;-71
2022/09/01 07:43:25;;;;;;;14.00;4.20;;;20.70;96.50;;;;;;5064721;28;20422;-71
2022/09/01 07:46:11;;;;;;;6.23;4.60;;;20.90;95.80;;;;;;5066186;28;20426;-71
2022/09/01 07:48:57;;;;;;;5.80;4.30;;;21.00;94.70;;;;;;5060576;28;21177;-71
2022/09/01 07:51:49;;;;;;;6.00;4.47;;;21.00;91.60;;;;;;5066223;28;20426;-72
2022/09/01 07:54:36;;;;;;;5.20;4.30;;;21.10;91.70;;;;;;5065532;28;20435;-71
2022/09/01 07:57:21;;;;;;;5.50;4.20;;;21.20;91.70;;;;;;5065261;28;20446;-71
2022/09/01 08:00:08;;;;;;;5.33;3.97;;;21.40;91.80;;;;;;5068079;28;20443;-71
2022/09/01 08:02:54;;;;;;;7.83;3.73;;;21.50;90.50;;;;;;5068569;28;20453;-71
2022/09/01 08:05:40;;;;;;;4.43;3.67;;;21.60;88.00;;;;;;5059608;28;20470;-71
2022/09/01 08:08:27;;;;;;;4.70;3.63;;;21.60;86.30;;;;;;5068243;28;20839;-71
2022/09/01 08:11:17;;;;;;;4.43;3.53;;;21.70;85.30;;;;;;5063109;28;20417;-71
2022/09/01 08:14:03;;;;;;;3.60;3.30;;;21.70;85.30;;;;;;5065843;28;20406;-71
2022/09/01 08:16:49;;;;;;;8.27;3.13;;;21.90;85.10;;;;;;5065310;28;20455;-71
2022/09/01 08:19:34;;;;;;;6.90;3.50;;;21.90;82.00;;;;;;5070339;28;20803;-71
2022/09/01 08:22:22;;;;;;;5.90;3.80;;;22.00;83.70;;;;;;5060436;28;20438;-71
2022/09/01 08:25:10;;;;;;;5.43;3.70;;;22.00;78.10;;;;;;5066089;28;20483;-71
2022/09/01 08:27:56;;;;;;;5.20;3.70;;;22.00;77.70;;;;;;5068632;28;20427;-71
2022/09/01 08:30:44;;;;;;;5.13;4.30;;;22.00;78.50;;;;;;5067173;28;20791;-71
2022/09/01 08:33:34;;;;;;;6.07;4.00;;;22.10;78.90;;;;;;5060000;28;20982;-72
2022/09/01 08:36:20;;;;;;;5.17;3.70;;;22.20;78.20;;;;;;5066774;28;20435;-71
2022/09/01 08:39:06;;;;;;;4.93;3.90;;;22.20;76.40;;;;;;5066376;28;20446;-71
2022/09/01 08:41:59;;;;;;;8.80;4.20;;;22.10;76.30;;;;;;5066556;28;20428;-71
2022/09/01 08:44:52;;;;;;;7.07;4.23;;;22.00;75.70;;;;;;5070498;28;21006;-71
2022/09/01 08:47:38;;;;;;;5.47;3.90;;;22.00;77.20;;;;;;5073493;28;20434;-71
2022/09/01 08:50:24;;;;;;;5.07;4.27;;;22.00;76.20;;;;;;5070744;28;20525;-71
2022/09/01 08:53:19;;;;;;;5.60;4.43;;;21.90;76.10;;;;;;5065126;28;20426;-71
2022/09/01 08:56:06;;;;;;;5.70;4.00;;;21.80;76.40;;;;;;5059032;28;20448;-71
2022/09/01 08:58:53;;;;;;;4.83;3.33;;;21.80;77.40;;;;;;5071619;28;21018;-71
2022/09/01 09:01:46;;;;;;;5.30;4.20;;;21.80;76.50;;;;;;5064138;28;20462;-71
2022/09/01 09:04:53;;;;;;;5.27;4.03;;;21.90;77.40;;;;;;5069466;28;20631;-71
2022/09/01 09:07:57;;;;;;;5.53;3.90;;;21.80;77.10;;;;;;5071205;28;20430;-71
2022/09/01 09:10:51;;;;;;;5.67;3.70;;;21.80;76.10;;;;;;5069817;28;20431;-71
2022/09/01 09:13:49;;;;;;;4.73;4.20;;;21.80;77.00;;;;;;5071844;28;20423;-71
2022/09/01 09:16:39;;;;;;;7.90;4.33;;;21.90;75.70;;;;;;5069594;28;20430;-71
2022/09/01 09:19:29;;;;;;;4.47;3.37;;;21.90;74.50;;;;;;5065448;28;20831;-71
2022/09/01 09:22:16;;;;;;;4.83;3.50;;;21.90;75.20;;;;;;5063873;28;20512;-71
2022/09/01 09:25:08;;;;;;;4.27;3.00;;;21.90;74.80;;;;;;5064728;28;20995;-71
2022/09/01 09:27:53;;;;;;;5.00;4.00;;;21.80;75.30;;;;;;5065726;28;20420;-71
2022/09/01 09:30:39;;;;;;;4.63;3.53;;;21.90;75.20;;;;;;5073257;28;20435;-71
2022/09/01 09:33:37;;;;;;;5.07;4.00;;;21.90;75.30;;;;;;5067412;28;20477;-71
2022/09/01 09:36:30;;;;;;;4.37;3.23;;;21.90;75.00;;;;;;5069988;28;20431;-71
2022/09/01 09:39:18;;;;;;;4.63;3.80;;;22.00;74.80;;;;;;5065793;28;20501;-71
2022/09/01 09:42:09;;;;;;;4.47;3.60;;;22.20;73.70;;;;;;5066606;28;20434;-71
2022/09/01 09:44:55;;;;;;;4.27;3.40;;;22.30;73.70;;;;;;5066917;28;20950;-71
2022/09/01 09:47:43;;;;;;;6.63;3.40;;;22.40;72.80;;;;;;5068618;28;20423;-71
2022/09/01 09:50:33;;;;;;;4.63;3.40;;;22.50;70.40;;;;;;5063009;28;20482;-71
2022/09/01 09:53:28;;;;;;;6.57;3.70;;;22.60;68.20;;;;;;5071564;28;20422;-71
2022/09/01 09:56:19;;;;;;;7.10;3.93;;;22.60;67.10;;;;;;5065157;28;20982;-71
2022/09/01 09:59:21;;;;;;;4.57;4.10;;;22.80;66.50;;;;;;5069288;28;20975;-71
2022/09/01 10:02:29;;;;;;;4.70;3.53;;;22.90;62.90;;;;;;5070597;28;20523;-71
2022/09/01 10:05:40;;;;;;;7.57;3.80;;;22.90;64.00;;;;;;5058430;28;20467;-71
2022/09/01 10:08:43;;;;;;;3.80;3.10;;;22.90;63.00;;;;;;5070544;28;20808;-71
2022/09/01 10:11:35;;;;;;;5.53;3.03;;;22.80;62.60;;;;;;5066032;28;20465;-71
2022/09/01 10:14:24;;;;;;;3.20;2.73;;;22.70;62.20;;;;;;5066104;28;20966;-71
2022/09/01 10:17:14;;;;;;;4.10;3.40;;;22.70;62.80;;;;;;5071059;28;20810;-71
2022/09/01 10:20:04;;;;;;;5.30;3.60;;;22.70;61.20;;;;;;5066869;28;20595;-71
2022/09/01 10:22:52;;;;;;;5.33;3.30;;;22.80;62.50;;;;;;5070050;28;21070;-71
2022/09/01 10:25:38;;;;;;;3.57;2.83;;;22.90;61.90;;;;;;5066123;28;21003;-71
2022/09/01 10:28:24;;;;;;;5.70;2.90;;;23.00;64.00;;;;;;5067055;28;20475;-71
2022/09/01 10:31:10;;;;;;;4.50;3.27;;;23.20;60.50;;;;;;5076612;28;20540;-70
2022/09/01 10:33:56;;;;;;;7.63;3.13;;;23.20;58.20;;;;;;5063964;28;20459;-70
2022/09/01 10:36:44;;;;;;;3.37;2.50;;;23.20;60.20;;;;;;5070082;28;20423;-71
2022/09/01 10:39:31;;;;;;;6.27;3.50;;;23.10;56.60;;;;;;5060033;28;20513;-70
2022/09/01 10:42:18;;;;;;;4.17;2.83;;;23.00;56.50;;;;;;5064589;28;20409;-71
2022/09/01 10:45:04;;;;;;;3.90;3.27;;;22.90;56.40;;;;;;5060277;28;20466;-70
2022/09/01 10:47:50;;;;;;;4.70;3.20;;;22.90;58.00;;;;;;5064506;28;21222;-70
2022/09/01 10:50:36;;;;;;;4.33;3.73;;;22.90;58.70;;;;;;5070869;28;20419;-70
2022/09/01 10:53:40;;;;;;;5.20;3.90;;;22.80;58.30;;;;;;5061713;28;20443;-71
2022/09/01 10:56:38;;;;;;;5.97;3.87;;;22.80;56.30;;;;;;5068595;28;20419;-71
2022/09/01 10:59:27;;;;;;;6.70;3.70;;;22.80;57.90;;;;;;5059567;28;22029;-70
2022/09/01 11:02:17;;;;;;;3.83;3.10;;;23.00;61.80;;;;;;5068775;28;20454;-71
2022/09/01 11:05:16;;;;;;;4.07;3.30;;;23.20;58.40;;;;;;5069613;28;20466;-71
2022/09/01 11:08:24;;;;;;;5.40;2.80;;;23.50;59.10;;;;;;5068025;28;20483;-70
2022/09/01 11:11:28;;;;;;;5.30;3.13;;;23.80;58.10;;;;;;5071720;28;20439;-71
2022/09/01 11:14:21;;;;;;;4.67;3.83;;;23.90;53.70;;;;;;5065132;28;21033;-71
2022/09/01 11:17:17;;;;;;;6.40;3.30;;;23.90;51.80;;;;;;5067067;28;20427;-70
2022/09/01 11:20:07;;;;;;;7.50;3.00;;;23.90;52.00;;;;;;5070318;28;20478;-71
2022/09/01 11:23:02;;;;;;;4.07;2.97;;;24.10;53.60;;;;;;5063523;28;20528;-71
2022/09/01 11:25:49;;;;;;;13.97;3.27;;;24.30;49.50;;;;;;5062329;28;20466;-71
2022/09/01 11:28:42;;;;;;;4.60;2.97;;;24.40;49.60;;;;;;5061576;28;20545;-71
2022/09/01 11:31:41;;;;;;;4.53;3.10;;;24.60;49.40;;;;;;5063009;28;20532;-71
2022/09/01 11:34:28;;;;;;;4.03;3.30;;;24.70;45.40;;;;;;5064955;28;20447;-70
2022/09/01 11:37:17;;;;;;;4.03;3.37;;;24.60;47.10;;;;;;5065636;28;20843;-70
2022/09/01 11:40:08;;;;;;;5.00;2.43;;;24.70;46.70;;;;;;5069745;28;20668;-71
2022/09/01 11:42:57;;;;;;;4.27;3.20;;;24.80;44.70;;;;;;5066547;28;20625;-71
2022/09/01 11:45:55;;;;;;;4.70;3.17;;;24.80;43.30;;;;;;5069282;28;20951;-71
2022/09/01 11:48:46;;;;;;;4.80;3.17;;;24.80;41.30;;;;;;5082044;22;20627;-71
2022/09/01 11:51:43;;;;;;;3.93;2.90;;;24.70;42.00;;;;;;5047010;28;20521;-71
2022/09/01 11:54:36;;;;;;;5.30;3.33;;;24.70;42.70;;;;;;5050600;28;20442;-71
2022/09/01 11:57:26;;;;;;;4.63;2.83;;;24.80;41.80;;;;;;5039676;28;21056;-71
2022/09/01 12:00:14;;;;;;;3.20;2.47;;;25.00;42.20;;;;;;5048601;28;20452;-71
2022/09/01 12:03:01;;;;;;;3.10;2.67;;;25.30;42.90;;;;;;5045019;28;20478;-71
2022/09/01 12:05:49;;;;;;;4.77;3.00;;;25.50;40.70;;;;;;5049399;28;20477;-71
2022/09/01 12:08:38;;;;;;;5.10;3.23;;;25.80;41.40;;;;;;5041220;28;21539;-71
2022/09/01 12:11:29;;;;;;;4.77;3.57;;;26.00;36.70;;;;;;5046775;28;20465;-71
2022/09/01 12:14:21;;;;;;;4.10;3.10;;;25.90;36.00;;;;;;5050630;28;21235;-71
2022/09/01 12:17:07;;;;;;;3.83;3.00;;;25.80;37.60;;;;;;5046823;28;20443;-71
2022/09/01 12:19:53;;;;;;;5.43;3.30;;;25.90;40.10;;;;;;5052436;28;20459;-71
2022/09/01 12:22:43;;;;;;;4.10;2.97;;;26.10;36.90;;;;;;5048125;28;20581;-71
2022/09/01 12:25:31;;;;;;;3.70;3.00;;;26.40;36.50;;;;;;5052302;28;20477;-71
2022/09/01 12:28:16;;;;;;;4.90;3.30;;;26.70;34.90;;;;;;5048197;28;20474;-71
2022/09/01 12:31:05;;;;;;;3.80;2.70;;;26.90;34.10;;;;;;5054396;28;20558;-71
2022/09/01 12:33:53;;;;;;;4.40;3.00;;;27.10;32.20;;;;;;5047476;28;20816;-71
2022/09/01 12:36:39;;;;;;;6.00;3.27;;;27.00;29.90;;;;;;5044087;28;20920;-72
2022/09/01 12:39:32;;;;;;;3.10;2.30;;;27.20;32.10;;;;;;5048468;28;21989;-71
2022/09/01 12:42:29;;;;;;;3.77;2.60;;;27.30;31.60;;;;;;5053026;28;20434;-71
2022/09/01 12:45:34;;;;;;;8.97;2.70;;;27.40;29.20;;;;;;5050722;28;20440;-72
2022/09/01 12:48:29;;;;;;;4.80;2.57;;;27.60;30.30;;;;;;5047312;28;21062;-71
2022/09/01 12:51:20;;;;;;;9.03;2.80;;;27.80;28.50;;;;;;5050290;28;20451;-71
2022/09/01 12:54:06;;;;;;;3.97;2.57;;;27.80;28.60;;;;;;5052869;28;20483;-72
2022/09/01 12:56:52;;;;;;;3.17;2.73;;;27.50;29.20;;;;;;5048525;28;20463;-71
2022/09/01 12:59:38;;;;;;;3.80;2.70;;;27.00;29.60;;;;;;5049690;28;20470;-71
2022/09/01 13:02:28;;;;;;;6.53;2.70;;;26.60;30.10;;;;;;5046805;28;20523;-71
2022/09/01 13:05:22;;;;;;;4.67;3.00;;;26.30;30.80;;;;;;5051462;28;20466;-71
2022/09/01 13:08:10;;;;;;;4.17;3.37;;;26.10;31.40;;;;;;5053140;28;20443;-71
2022/09/01 13:10:59;;;;;;;4.50;2.90;;;25.80;31.20;;;;;;5044556;28;20452;-71
2022/09/01 13:13:47;;;;;;;5.33;3.83;;;25.60;32.30;;;;;;5046250;28;21015;-71
2022/09/01 13:16:32;;;;;;;11.20;3.23;;;25.30;33.40;;;;;;5045803;28;20467;-72
2022/09/01 13:19:18;;;;;;;8.20;3.40;;;25.10;34.50;;;;;;5050426;28;20477;-72
2022/09/01 13:22:03;;;;;;;3.90;2.40;;;24.90;34.40;;;;;;5050991;28;20417;-71
2022/09/01 13:24:49;;;;;;;5.43;3.10;;;24.80;34.80;;;;;;5045247;28;20459;-72
2022/09/01 13:27:35;;;;;;;5.20;2.60;;;24.60;35.40;;;;;;5048642;28;20479;-72
2022/09/01 13:30:27;;;;;;;5.57;3.17;;;24.50;35.10;;;;;;5046178;28;20545;-71
2022/09/01 13:33:12;;;;;;;6.30;2.97;;;24.40;34.80;;;;;;5052241;28;20430;-72
2022/09/01 13:35:58;;;;;;;3.03;2.67;;;24.40;36.00;;;;;;5048360;28;20530;-71
2022/09/01 13:38:44;;;;;;;4.30;3.20;;;24.40;35.70;;;;;;5048176;28;21306;-71
2022/09/01 13:41:30;;;;;;;3.50;2.90;;;24.40;35.00;;;;;;5048427;28;20494;-71
2022/09/01 13:44:17;;;;;;;6.60;3.73;;;24.30;37.10;;;;;;5049738;28;20448;-71
2022/09/01 13:47:04;;;;;;;4.23;3.10;;;24.30;35.90;;;;;;5048759;28;20475;-71
2022/09/01 13:49:50;;;;;;;3.97;2.80;;;24.30;37.20;;;;;;5050940;28;20552;-71
2022/09/01 13:52:35;;;;;;;3.50;3.03;;;24.30;38.50;;;;;;5050400;28;20451;-72
2022/09/01 13:55:23;;;;;;;3.00;2.60;;;24.30;37.50;;;;;;5049698;28;20963;-71
2022/09/01 13:58:09;;;;;;;4.13;3.03;;;24.30;38.60;;;;;;5050679;28;20442;-71
2022/09/01 14:00:58;;;;;;;5.30;3.27;;;24.30;38.40;;;;;;5051686;28;20471;-71
2022/09/01 14:03:45;;;;;;;4.50;3.10;;;24.30;38.90;;;;;;5046131;28;20646;-71
2022/09/01 14:06:30;;;;;;;4.93;3.57;;;24.40;38.60;;;;;;5045412;28;20546;-71
2022/09/01 14:09:16;;;;;;;7.40;3.30;;;24.40;37.30;;;;;;5054332;28;20463;-71
2022/09/01 14:12:04;;;;;;;3.50;2.50;;;24.40;36.70;;;;;;5048678;28;20455;-71
2022/09/01 14:14:49;;;;;;;4.80;2.80;;;24.30;37.00;;;;;;5044555;28;20832;-71
2022/09/01 14:17:37;;;;;;;5.80;3.17;;;24.40;36.80;;;;;;5051678;28;20432;-71
2022/09/01 14:20:28;;;;;;;6.07;3.10;;;24.30;37.20;;;;;;5045889;28;20589;-71
2022/09/01 14:23:15;;;;;;;3.97;2.80;;;24.40;36.80;;;;;;5042142;28;20515;-71
2022/09/01 14:26:01;;;;;;;4.60;3.10;;;24.40;35.10;;;;;;5046504;28;20825;-71
2022/09/01 14:28:48;;;;;;;3.60;2.77;;;24.40;34.70;;;;;;5043453;28;20467;-71
2022/09/01 14:31:35;;;;;;;2.83;2.17;;;24.30;34.40;;;;;;5046542;28;20801;-71
2022/09/01 14:34:20;;;;;;;3.40;2.60;;;24.40;32.60;;;;;;5039233;28;20459;-71
2022/09/01 14:37:07;;;;;;;6.27;2.57;;;24.40;33.60;;;;;;5044757;28;20459;-71
2022/09/01 14:39:55;;;;;;;4.70;2.77;;;24.40;34.80;;;;;;5043652;28;20537;-71
2022/09/01 14:42:45;;;;;;;5.40;2.77;;;24.70;34.70;;;;;;5046713;28;20459;-71